sensor_id;sensor_type;location;lat;lon;timestamp;P1;durP1;ratioP1;P2;durP2;ratioP2
55069;SDS011;40967;52.070;8.596;2023-08-06T00:01:49;1.37;;;0.90;;
55069;SDS011;40967;52.070;8.596;2023-08-06T00:04:14;1.47;;;0.90;;
55069;SDS011;40967;52.070;8.596;2023-08-06T00:06:39;1.87;;;1.10;;
55069;SDS011;40967;52.070;8.596;2023-08-06T00:09:05;2.87;;;1.20;;
55069;SDS011;40967;52.070;8.596;2023-08-06T00:11:31;1.65;;;1.00;;
55069;SDS011;40967;52.070;8.596;2023-08-06T00:13:56;1.97;;;1.10;;
55069;SDS011;40967;52.070;8.596;2023-08-06T00:16:22;1.83;;;1.03;;
55069;SDS011;40967;52.070;8.596;2023-08-06T00:18:47;1.53;;;0.90;;
55069;SDS011;40967;52.070;8.596;2023-08-06T00:21:12;1.73;;;1.00;;
55069;SDS011;40967;52.070;8.596;2023-08-06T00:23:38;1.45;;;0.95;;
55069;SDS011;40967;52.070;8.596;2023-08-06T00:26:04;1.40;;;0.90;;
55069;SDS011;40967;52.070;8.596;2023-08-06T00:28:30;1.70;;;0.98;;
55069;SDS011;40967;52.070;8.596;2023-08-06T00:30:55;1.38;;;0.95;;
55069;SDS011;40967;52.070;8.596;2023-08-06T00:33:24;1.30;;;0.80;;
55069;SDS011;40967;52.070;8.596;2023-08-06T00:35:50;1.73;;;0.90;;
55069;SDS011;40967;52.070;8.596;2023-08-06T00:38:15;1.60;;;0.80;;
55069;SDS011;40967;52.070;8.596;2023-08-06T00:40:41;0.97;;;0.70;;
55069;SDS011;40967;52.070;8.596;2023-08-06T00:43:06;1.90;;;0.87;;
55069;SDS011;40967;52.070;8.596;2023-08-06T00:45:36;1.30;;;0.80;;
55069;SDS011;40967;52.070;8.596;2023-08-06T00:48:02;1.65;;;1.00;;
55069;SDS011;40967;52.070;8.596;2023-08-06T00:50:29;1.20;;;0.77;;
55069;SDS011;40967;52.070;8.596;2023-08-06T00:52:55;1.60;;;1.10;;
55069;SDS011;40967;52.070;8.596;2023-08-06T00:55:21;1.43;;;0.83;;
55069;SDS011;40967;52.070;8.596;2023-08-06T00:57:47;1.38;;;0.93;;
55069;SDS011;40967;52.070;8.596;2023-08-06T01:00:12;1.45;;;0.93;;
55069;SDS011;40967;52.070;8.596;2023-08-06T01:02:38;1.30;;;0.90;;
55069;SDS011;40967;52.070;8.596;2023-08-06T01:05:04;1.42;;;0.80;;
55069;SDS011;40967;52.070;8.596;2023-08-06T01:15:40;1.38;;;0.90;;
55069;SDS011;40967;52.070;8.596;2023-08-06T01:18:14;1.63;;;1.00;;
55069;SDS011;40967;52.070;8.596;2023-08-06T01:20:39;1.80;;;1.10;;
55069;SDS011;40967;52.070;8.596;2023-08-06T01:23:05;1.40;;;0.90;;
55069;SDS011;40967;52.070;8.596;2023-08-06T01:25:33;1.00;;;0.70;;
55069;SDS011;40967;52.070;8.596;2023-08-06T01:28:07;1.30;;;0.82;;
55069;SDS011;40967;52.070;8.596;2023-08-06T01:30:48;1.50;;;1.00;;
55069;SDS011;40967;52.070;8.596;2023-08-06T01:33:16;1.52;;;0.90;;
55069;SDS011;40967;52.070;8.596;2023-08-06T01:35:46;1.35;;;0.90;;
55069;SDS011;40967;52.070;8.596;2023-08-06T01:38:14;1.42;;;1.00;;
55069;SDS011;40967;52.070;8.596;2023-08-06T01:40:40;1.40;;;0.90;;
55069;SDS011;40967;52.070;8.596;2023-08-06T01:43:05;2.00;;;1.00;;
55069;SDS011;40967;52.070;8.596;2023-08-06T01:45:31;1.23;;;0.70;;
55069;SDS011;40967;52.070;8.596;2023-08-06T01:47:56;1.65;;;0.80;;
55069;SDS011;40967;52.070;8.596;2023-08-06T01:50:21;1.05;;;0.80;;
55069;SDS011;40967;52.070;8.596;2023-08-06T01:52:47;1.80;;;1.00;;
55069;SDS011;40967;52.070;8.596;2023-08-06T01:55:12;1.40;;;0.90;;
55069;SDS011;40967;52.070;8.596;2023-08-06T01:57:38;1.50;;;0.90;;
55069;SDS011;40967;52.070;8.596;2023-08-06T02:00:03;1.23;;;0.90;;
55069;SDS011;40967;52.070;8.596;2023-08-06T02:02:29;1.65;;;1.08;;
55069;SDS011;40967;52.070;8.596;2023-08-06T02:04:54;1.60;;;0.90;;
55069;SDS011;40967;52.070;8.596;2023-08-06T02:07:20;1.50;;;1.00;;
55069;SDS011;40967;52.070;8.596;2023-08-06T02:09:45;1.90;;;1.03;;
55069;SDS011;40967;52.070;8.596;2023-08-06T02:12:10;1.73;;;1.10;;
55069;SDS011;40967;52.070;8.596;2023-08-06T02:14:36;1.60;;;1.10;;
55069;SDS011;40967;52.070;8.596;2023-08-06T02:17:01;1.40;;;0.90;;
55069;SDS011;40967;52.070;8.596;2023-08-06T02:19:27;1.73;;;1.10;;
55069;SDS011;40967;52.070;8.596;2023-08-06T02:21:52;1.50;;;0.90;;
55069;SDS011;40967;52.070;8.596;2023-08-06T02:24:17;1.10;;;0.77;;
55069;SDS011;40967;52.070;8.596;2023-08-06T02:26:43;1.30;;;0.88;;
55069;SDS011;40967;52.070;8.596;2023-08-06T02:29:11;1.63;;;0.98;;
55069;SDS011;40967;52.070;8.596;2023-08-06T02:31:36;1.60;;;1.00;;
55069;SDS011;40967;52.070;8.596;2023-08-06T02:34:02;1.40;;;0.90;;
55069;SDS011;40967;52.070;8.596;2023-08-06T02:36:27;1.67;;;1.00;;
55069;SDS011;40967;52.070;8.596;2023-08-06T02:38:54;1.88;;;1.00;;
55069;SDS011;40967;52.070;8.596;2023-08-06T02:41:20;1.00;;;0.70;;
55069;SDS011;40967;52.070;8.596;2023-08-06T02:43:45;1.30;;;0.80;;
55069;SDS011;40967;52.070;8.596;2023-08-06T02:46:11;1.10;;;0.80;;
55069;SDS011;40967;52.070;8.596;2023-08-06T02:48:36;1.00;;;0.60;;
55069;SDS011;40967;52.070;8.596;2023-08-06T02:51:01;1.50;;;0.90;;
55069;SDS011;40967;52.070;8.596;2023-08-06T02:53:27;1.87;;;1.00;;
55069;SDS011;40967;52.070;8.596;2023-08-06T02:55:52;1.60;;;1.03;;
55069;SDS011;40967;52.070;8.596;2023-08-06T02:58:18;1.52;;;0.93;;
55069;SDS011;40967;52.070;8.596;2023-08-06T03:00:47;1.77;;;1.00;;
55069;SDS011;40967;52.070;8.596;2023-08-06T03:03:24;1.30;;;0.90;;
55069;SDS011;40967;52.070;8.596;2023-08-06T03:05:53;1.40;;;0.80;;
55069;SDS011;40967;52.070;8.596;2023-08-06T03:08:18;1.10;;;0.80;;
55069;SDS011;40967;52.070;8.596;2023-08-06T03:10:47;1.07;;;0.70;;
55069;SDS011;40967;52.070;8.596;2023-08-06T03:13:13;0.90;;;0.70;;
55069;SDS011;40967;52.070;8.596;2023-08-06T03:15:38;1.33;;;0.80;;
55069;SDS011;40967;52.070;8.596;2023-08-06T03:18:03;1.00;;;0.73;;
55069;SDS011;40967;52.070;8.596;2023-08-06T03:20:30;1.15;;;0.70;;
55069;SDS011;40967;52.070;8.596;2023-08-06T03:22:57;1.00;;;0.60;;
55069;SDS011;40967;52.070;8.596;2023-08-06T03:25:22;1.60;;;1.00;;
55069;SDS011;40967;52.070;8.596;2023-08-06T03:27:48;1.47;;;1.00;;
55069;SDS011;40967;52.070;8.596;2023-08-06T03:30:13;1.30;;;0.90;;
55069;SDS011;40967;52.070;8.596;2023-08-06T03:32:38;1.23;;;0.80;;
55069;SDS011;40967;52.070;8.596;2023-08-06T03:35:04;1.10;;;0.80;;
55069;SDS011;40967;52.070;8.596;2023-08-06T03:37:30;1.17;;;0.80;;
55069;SDS011;40967;52.070;8.596;2023-08-06T03:39:55;1.20;;;0.80;;
55069;SDS011;40967;52.070;8.596;2023-08-06T03:42:20;1.03;;;0.70;;
55069;SDS011;40967;52.070;8.596;2023-08-06T03:44:46;1.03;;;0.70;;
55069;SDS011;40967;52.070;8.596;2023-08-06T03:47:12;1.02;;;0.70;;
55069;SDS011;40967;52.070;8.596;2023-08-06T03:49:38;0.80;;;0.60;;
55069;SDS011;40967;52.070;8.596;2023-08-06T03:52:03;0.73;;;0.60;;
55069;SDS011;40967;52.070;8.596;2023-08-06T03:54:29;1.00;;;0.80;;
55069;SDS011;40967;52.070;8.596;2023-08-06T03:56:55;1.27;;;0.77;;
55069;SDS011;40967;52.070;8.596;2023-08-06T03:59:20;1.00;;;0.70;;
55069;SDS011;40967;52.070;8.596;2023-08-06T04:01:46;0.98;;;0.60;;
55069;SDS011;40967;52.070;8.596;2023-08-06T04:04:11;1.20;;;0.80;;
55069;SDS011;40967;52.070;8.596;2023-08-06T04:06:36;1.20;;;0.77;;
55069;SDS011;40967;52.070;8.596;2023-08-06T04:09:02;1.20;;;0.80;;
55069;SDS011;40967;52.070;8.596;2023-08-06T04:11:27;1.17;;;0.73;;
55069;SDS011;40967;52.070;8.596;2023-08-06T04:13:53;0.88;;;0.60;;
55069;SDS011;40967;52.070;8.596;2023-08-06T04:16:20;0.90;;;0.65;;
55069;SDS011;40967;52.070;8.596;2023-08-06T04:18:46;1.30;;;0.70;;
55069;SDS011;40967;52.070;8.596;2023-08-06T04:21:11;1.00;;;0.70;;
55069;SDS011;40967;52.070;8.596;2023-08-06T04:23:36;1.00;;;0.60;;
55069;SDS011;40967;52.070;8.596;2023-08-06T04:26:05;1.00;;;0.60;;
55069;SDS011;40967;52.070;8.596;2023-08-06T04:28:30;1.27;;;0.70;;
55069;SDS011;40967;52.070;8.596;2023-08-06T04:30:56;0.97;;;0.70;;
55069;SDS011;40967;52.070;8.596;2023-08-06T04:33:21;1.10;;;0.73;;
55069;SDS011;40967;52.070;8.596;2023-08-06T04:35:46;1.20;;;0.70;;
55069;SDS011;40967;52.070;8.596;2023-08-06T04:38:12;1.20;;;0.80;;
55069;SDS011;40967;52.070;8.596;2023-08-06T04:40:37;1.67;;;1.00;;
55069;SDS011;40967;52.070;8.596;2023-08-06T04:43:03;1.10;;;0.70;;
55069;SDS011;40967;52.070;8.596;2023-08-06T04:45:28;1.03;;;0.70;;
55069;SDS011;40967;52.070;8.596;2023-08-06T04:47:54;1.10;;;0.80;;
55069;SDS011;40967;52.070;8.596;2023-08-06T04:50:19;1.20;;;0.80;;
55069;SDS011;40967;52.070;8.596;2023-08-06T04:52:45;1.10;;;0.70;;
55069;SDS011;40967;52.070;8.596;2023-08-06T04:55:10;1.30;;;0.97;;
55069;SDS011;40967;52.070;8.596;2023-08-06T04:57:36;1.55;;;1.00;;
55069;SDS011;40967;52.070;8.596;2023-08-06T05:00:01;1.25;;;0.95;;
55069;SDS011;40967;52.070;8.596;2023-08-06T05:02:27;1.50;;;0.90;;
55069;SDS011;40967;52.070;8.596;2023-08-06T05:04:53;1.83;;;1.07;;
55069;SDS011;40967;52.070;8.596;2023-08-06T05:07:18;1.67;;;0.93;;
55069;SDS011;40967;52.070;8.596;2023-08-06T05:09:43;1.45;;;0.90;;
55069;SDS011;40967;52.070;8.596;2023-08-06T05:12:09;1.67;;;1.00;;
55069;SDS011;40967;52.070;8.596;2023-08-06T05:14:34;2.50;;;1.10;;
55069;SDS011;40967;52.070;8.596;2023-08-06T05:16:59;1.43;;;0.90;;
55069;SDS011;40967;52.070;8.596;2023-08-06T05:19:27;1.50;;;1.00;;
55069;SDS011;40967;52.070;8.596;2023-08-06T05:21:52;2.30;;;1.00;;
55069;SDS011;40967;52.070;8.596;2023-08-06T05:24:18;1.70;;;1.10;;
55069;SDS011;40967;52.070;8.596;2023-08-06T05:26:43;1.67;;;1.02;;
55069;SDS011;40967;52.070;8.596;2023-08-06T05:29:11;1.65;;;1.00;;
55069;SDS011;40967;52.070;8.596;2023-08-06T05:31:37;1.50;;;1.00;;
55069;SDS011;40967;52.070;8.596;2023-08-06T05:34:02;1.77;;;1.02;;
55069;SDS011;40967;52.070;8.596;2023-08-06T05:36:28;1.48;;;0.98;;
55069;SDS011;40967;52.070;8.596;2023-08-06T05:38:53;1.40;;;0.90;;
55069;SDS011;40967;52.070;8.596;2023-08-06T05:41:18;1.30;;;0.90;;
55069;SDS011;40967;52.070;8.596;2023-08-06T05:43:44;1.17;;;0.90;;
55069;SDS011;40967;52.070;8.596;2023-08-06T05:46:10;1.55;;;0.90;;
55069;SDS011;40967;52.070;8.596;2023-08-06T05:48:35;1.47;;;0.90;;
55069;SDS011;40967;52.070;8.596;2023-08-06T05:51:00;1.20;;;0.80;;
55069;SDS011;40967;52.070;8.596;2023-08-06T05:53:26;1.50;;;1.00;;
55069;SDS011;40967;52.070;8.596;2023-08-06T05:55:51;1.37;;;0.90;;
55069;SDS011;40967;52.070;8.596;2023-08-06T05:58:16;1.33;;;0.90;;
55069;SDS011;40967;52.070;8.596;2023-08-06T06:00:42;1.20;;;0.90;;
55069;SDS011;40967;52.070;8.596;2023-08-06T06:03:08;1.40;;;1.00;;
55069;SDS011;40967;52.070;8.596;2023-08-06T06:05:34;2.00;;;1.20;;
55069;SDS011;40967;52.070;8.596;2023-08-06T06:07:59;2.10;;;1.30;;
55069;SDS011;40967;52.070;8.596;2023-08-06T06:10:24;2.07;;;1.20;;
55069;SDS011;40967;52.070;8.596;2023-08-06T06:12:50;2.27;;;1.43;;
55069;SDS011;40967;52.070;8.596;2023-08-06T06:15:15;2.60;;;1.50;;
55069;SDS011;40967;52.070;8.596;2023-08-06T06:17:41;2.38;;;1.50;;
55069;SDS011;40967;52.070;8.596;2023-08-06T06:20:06;2.10;;;1.33;;
55069;SDS011;40967;52.070;8.596;2023-08-06T06:22:32;2.37;;;1.53;;
55069;SDS011;40967;52.070;8.596;2023-08-06T06:24:57;2.20;;;1.40;;
55069;SDS011;40967;52.070;8.596;2023-08-06T06:27:23;2.20;;;1.40;;
55069;SDS011;40967;52.070;8.596;2023-08-06T06:29:48;1.92;;;1.20;;
55069;SDS011;40967;52.070;8.596;2023-08-06T06:32:13;1.92;;;1.20;;
55069;SDS011;40967;52.070;8.596;2023-08-06T06:34:39;2.15;;;1.35;;
55069;SDS011;40967;52.070;8.596;2023-08-06T06:37:04;2.00;;;1.20;;
55069;SDS011;40967;52.070;8.596;2023-08-06T06:39:30;1.87;;;1.20;;
55069;SDS011;40967;52.070;8.596;2023-08-06T06:41:55;1.83;;;1.07;;
55069;SDS011;40967;52.070;8.596;2023-08-06T06:44:21;1.63;;;1.00;;
55069;SDS011;40967;52.070;8.596;2023-08-06T06:46:46;1.80;;;1.00;;
55069;SDS011;40967;52.070;8.596;2023-08-06T06:49:12;1.80;;;1.00;;
55069;SDS011;40967;52.070;8.596;2023-08-06T06:51:37;1.55;;;1.00;;
55069;SDS011;40967;52.070;8.596;2023-08-06T06:54:02;1.25;;;0.90;;
55069;SDS011;40967;52.070;8.596;2023-08-06T06:56:28;1.40;;;0.93;;
55069;SDS011;40967;52.070;8.596;2023-08-06T06:58:53;1.20;;;0.80;;
55069;SDS011;40967;52.070;8.596;2023-08-06T07:01:19;1.20;;;0.80;;
55069;SDS011;40967;52.070;8.596;2023-08-06T07:03:44;1.37;;;0.80;;
55069;SDS011;40967;52.070;8.596;2023-08-06T07:06:09;1.27;;;0.80;;
55069;SDS011;40967;52.070;8.596;2023-08-06T07:08:35;0.83;;;0.60;;
55069;SDS011;40967;52.070;8.596;2023-08-06T07:11:01;0.80;;;0.60;;
55069;SDS011;40967;52.070;8.596;2023-08-06T07:13:28;1.48;;;1.00;;
55069;SDS011;40967;52.070;8.596;2023-08-06T07:15:54;1.70;;;1.07;;
55069;SDS011;40967;52.070;8.596;2023-08-06T07:18:20;1.30;;;0.90;;
55069;SDS011;40967;52.070;8.596;2023-08-06T07:20:49;1.63;;;1.10;;
55069;SDS011;40967;52.070;8.596;2023-08-06T07:23:22;1.45;;;0.95;;
55069;SDS011;40967;52.070;8.596;2023-08-06T07:25:49;1.48;;;1.00;;
55069;SDS011;40967;52.070;8.596;2023-08-06T07:28:15;1.17;;;0.80;;
55069;SDS011;40967;52.070;8.596;2023-08-06T07:30:41;1.77;;;1.00;;
55069;SDS011;40967;52.070;8.596;2023-08-06T07:33:07;1.48;;;0.85;;
55069;SDS011;40967;52.070;8.596;2023-08-06T07:35:32;1.33;;;0.83;;
55069;SDS011;40967;52.070;8.596;2023-08-06T07:37:58;1.23;;;0.90;;
55069;SDS011;40967;52.070;8.596;2023-08-06T07:40:23;1.27;;;0.90;;
55069;SDS011;40967;52.070;8.596;2023-08-06T07:42:49;1.50;;;0.90;;
55069;SDS011;40967;52.070;8.596;2023-08-06T07:45:14;1.73;;;1.00;;
55069;SDS011;40967;52.070;8.596;2023-08-06T07:47:40;1.90;;;1.10;;
55069;SDS011;40967;52.070;8.596;2023-08-06T07:50:05;1.53;;;1.00;;
55069;SDS011;40967;52.070;8.596;2023-08-06T07:52:31;1.40;;;1.00;;
55069;SDS011;40967;52.070;8.596;2023-08-06T07:54:57;0.83;;;0.70;;
55069;SDS011;40967;52.070;8.596;2023-08-06T07:57:22;1.10;;;0.80;;
55069;SDS011;40967;52.070;8.596;2023-08-06T07:59:48;0.80;;;0.60;;
55069;SDS011;40967;52.070;8.596;2023-08-06T08:02:13;0.90;;;0.73;;
55069;SDS011;40967;52.070;8.596;2023-08-06T08:04:38;1.43;;;0.90;;
55069;SDS011;40967;52.070;8.596;2023-08-06T08:07:04;0.90;;;0.60;;
55069;SDS011;40967;52.070;8.596;2023-08-06T08:09:30;0.68;;;0.55;;
55069;SDS011;40967;52.070;8.596;2023-08-06T08:11:55;0.63;;;0.53;;
55069;SDS011;40967;52.070;8.596;2023-08-06T08:14:20;0.80;;;0.50;;
55069;SDS011;40967;52.070;8.596;2023-08-06T08:16:46;0.80;;;0.50;;
55069;SDS011;40967;52.070;8.596;2023-08-06T08:19:11;0.57;;;0.50;;
55069;SDS011;40967;52.070;8.596;2023-08-06T08:21:36;1.40;;;0.80;;
55069;SDS011;40967;52.070;8.596;2023-08-06T08:24:06;1.27;;;0.77;;
55069;SDS011;40967;52.070;8.596;2023-08-06T08:26:32;1.00;;;0.80;;
55069;SDS011;40967;52.070;8.596;2023-08-06T08:28:57;0.70;;;0.60;;
55069;SDS011;40967;52.070;8.596;2023-08-06T08:31:23;1.40;;;0.43;;
55069;SDS011;40967;52.070;8.596;2023-08-06T08:33:48;0.80;;;0.60;;
55069;SDS011;40967;52.070;8.596;2023-08-06T08:36:13;0.50;;;0.40;;
55069;SDS011;40967;52.070;8.596;2023-08-06T08:38:39;0.97;;;0.60;;
55069;SDS011;40967;52.070;8.596;2023-08-06T08:41:04;0.53;;;0.50;;
55069;SDS011;40967;52.070;8.596;2023-08-06T08:43:30;1.17;;;0.60;;
55069;SDS011;40967;52.070;8.596;2023-08-06T08:45:56;0.60;;;0.43;;
55069;SDS011;40967;52.070;8.596;2023-08-06T08:48:26;0.90;;;0.50;;
55069;SDS011;40967;52.070;8.596;2023-08-06T08:50:52;0.40;;;0.40;;
55069;SDS011;40967;52.070;8.596;2023-08-06T08:53:18;0.52;;;0.40;;
55069;SDS011;40967;52.070;8.596;2023-08-06T08:55:48;0.50;;;0.50;;
55069;SDS011;40967;52.070;8.596;2023-08-06T08:58:14;0.50;;;0.40;;
55069;SDS011;40967;52.070;8.596;2023-08-06T09:00:45;0.35;;;0.35;;
55069;SDS011;40967;52.070;8.596;2023-08-06T09:03:13;0.57;;;0.40;;
55069;SDS011;40967;52.070;8.596;2023-08-06T09:05:41;0.60;;;0.40;;
55069;SDS011;40967;52.070;8.596;2023-08-06T09:08:09;0.50;;;0.40;;
55069;SDS011;40967;52.070;8.596;2023-08-06T09:10:36;0.57;;;0.40;;
55069;SDS011;40967;52.070;8.596;2023-08-06T09:13:03;0.40;;;0.40;;
55069;SDS011;40967;52.070;8.596;2023-08-06T09:15:29;0.30;;;0.30;;
55069;SDS011;40967;52.070;8.596;2023-08-06T09:17:59;0.30;;;0.30;;
55069;SDS011;40967;52.070;8.596;2023-08-06T09:20:24;0.47;;;0.30;;
55069;SDS011;40967;52.070;8.596;2023-08-06T09:22:52;0.30;;;0.30;;
55069;SDS011;40967;52.070;8.596;2023-08-06T09:25:25;0.30;;;0.23;;
55069;SDS011;40967;52.070;8.596;2023-08-06T09:27:51;0.70;;;0.40;;
55069;SDS011;40967;52.070;8.596;2023-08-06T09:30:29;0.97;;;0.57;;
55069;SDS011;40967;52.070;8.596;2023-08-06T09:32:56;0.70;;;0.53;;
55069;SDS011;40967;52.070;8.596;2023-08-06T09:35:22;0.80;;;0.60;;
55069;SDS011;40967;52.070;8.596;2023-08-06T09:37:48;0.88;;;0.57;;
55069;SDS011;40967;52.070;8.596;2023-08-06T09:40:29;0.70;;;0.50;;
55069;SDS011;40967;52.070;8.596;2023-08-06T09:42:56;0.90;;;0.60;;
55069;SDS011;40967;52.070;8.596;2023-08-06T09:45:23;0.70;;;0.50;;
55069;SDS011;40967;52.070;8.596;2023-08-06T09:47:56;0.60;;;0.47;;
55069;SDS011;40967;52.070;8.596;2023-08-06T09:50:22;1.20;;;0.60;;
55069;SDS011;40967;52.070;8.596;2023-08-06T09:52:48;0.70;;;0.57;;
55069;SDS011;40967;52.070;8.596;2023-08-06T09:55:15;0.77;;;0.50;;
55069;SDS011;40967;52.070;8.596;2023-08-06T09:57:41;0.90;;;0.60;;
55069;SDS011;40967;52.070;8.596;2023-08-06T10:00:07;1.38;;;0.68;;
55069;SDS011;40967;52.070;8.596;2023-08-06T10:02:40;0.85;;;0.60;;
55069;SDS011;40967;52.070;8.596;2023-08-06T10:05:06;1.13;;;0.65;;
55069;SDS011;40967;52.070;8.596;2023-08-06T10:07:33;0.88;;;0.57;;
55069;SDS011;40967;52.070;8.596;2023-08-06T10:09:59;0.80;;;0.67;;
55069;SDS011;40967;52.070;8.596;2023-08-06T10:12:25;1.02;;;0.65;;
55069;SDS011;40967;52.070;8.596;2023-08-06T10:14:55;0.80;;;0.60;;
55069;SDS011;40967;52.070;8.596;2023-08-06T10:17:24;1.10;;;0.60;;
55069;SDS011;40967;52.070;8.596;2023-08-06T10:19:52;1.70;;;0.80;;
55069;SDS011;40967;52.070;8.596;2023-08-06T10:22:20;0.83;;;0.67;;
55069;SDS011;40967;52.070;8.596;2023-08-06T10:30:21;0.95;;;0.68;;
55069;SDS011;40967;52.070;8.596;2023-08-06T10:32:54;1.10;;;0.70;;
55069;SDS011;40967;52.070;8.596;2023-08-06T10:38:09;1.02;;;0.60;;
55069;SDS011;40967;52.070;8.596;2023-08-06T10:40:36;0.90;;;0.60;;
55069;SDS011;40967;52.070;8.596;2023-08-06T10:43:04;0.55;;;0.52;;
55069;SDS011;40967;52.070;8.596;2023-08-06T10:45:35;0.68;;;0.60;;
55069;SDS011;40967;52.070;8.596;2023-08-06T10:48:01;1.03;;;0.60;;
55069;SDS011;40967;52.070;8.596;2023-08-06T10:50:27;1.40;;;0.70;;
55069;SDS011;40967;52.070;8.596;2023-08-06T10:52:53;0.77;;;0.60;;
55069;SDS011;40967;52.070;8.596;2023-08-06T10:55:26;1.10;;;0.60;;
55069;SDS011;40967;52.070;8.596;2023-08-06T10:57:52;1.38;;;0.80;;
55069;SDS011;40967;52.070;8.596;2023-08-06T11:00:18;0.95;;;0.60;;
55069;SDS011;40967;52.070;8.596;2023-08-06T11:02:49;1.00;;;0.73;;
55069;SDS011;40967;52.070;8.596;2023-08-06T11:05:15;0.93;;;0.60;;
55069;SDS011;40967;52.070;8.596;2023-08-06T11:07:41;1.10;;;0.70;;
55069;SDS011;40967;52.070;8.596;2023-08-06T11:10:08;1.15;;;0.75;;
55069;SDS011;40967;52.070;8.596;2023-08-06T11:12:34;1.10;;;0.60;;
55069;SDS011;40967;52.070;8.596;2023-08-06T11:15:00;1.13;;;0.70;;
55069;SDS011;40967;52.070;8.596;2023-08-06T11:17:27;0.98;;;0.70;;
55069;SDS011;40967;52.070;8.596;2023-08-06T11:19:53;1.00;;;0.70;;
55069;SDS011;40967;52.070;8.596;2023-08-06T11:22:20;0.90;;;0.60;;
55069;SDS011;40967;52.070;8.596;2023-08-06T11:24:46;0.63;;;0.50;;
55069;SDS011;40967;52.070;8.596;2023-08-06T11:27:12;0.63;;;0.50;;
55069;SDS011;40967;52.070;8.596;2023-08-06T11:29:39;0.98;;;0.60;;
55069;SDS011;40967;52.070;8.596;2023-08-06T11:32:06;0.52;;;0.50;;
55069;SDS011;40967;52.070;8.596;2023-08-06T11:34:31;0.70;;;0.50;;
55069;SDS011;40967;52.070;8.596;2023-08-06T11:36:57;0.67;;;0.50;;
55069;SDS011;40967;52.070;8.596;2023-08-06T11:39:23;0.60;;;0.50;;
55069;SDS011;40967;52.070;8.596;2023-08-06T11:41:49;0.88;;;0.60;;
55069;SDS011;40967;52.070;8.596;2023-08-06T11:44:14;1.03;;;0.57;;
55069;SDS011;40967;52.070;8.596;2023-08-06T11:46:49;0.80;;;0.50;;
55069;SDS011;40967;52.070;8.596;2023-08-06T11:49:20;1.08;;;0.50;;
55069;SDS011;40967;52.070;8.596;2023-08-06T11:51:47;0.60;;;0.50;;
55069;SDS011;40967;52.070;8.596;2023-08-06T11:54:13;0.60;;;0.50;;
55069;SDS011;40967;52.070;8.596;2023-08-06T11:56:38;0.47;;;0.40;;
55069;SDS011;40967;52.070;8.596;2023-08-06T11:59:04;0.40;;;0.40;;
55069;SDS011;40967;52.070;8.596;2023-08-06T12:01:30;0.73;;;0.50;;
55069;SDS011;40967;52.070;8.596;2023-08-06T12:03:59;1.02;;;0.60;;
55069;SDS011;40967;52.070;8.596;2023-08-06T12:06:28;0.90;;;0.50;;
55069;SDS011;40967;52.070;8.596;2023-08-06T12:08:53;1.00;;;0.70;;
55069;SDS011;40967;52.070;8.596;2023-08-06T12:11:20;0.40;;;0.40;;
55069;SDS011;40967;52.070;8.596;2023-08-06T12:13:46;0.60;;;0.50;;
55069;SDS011;40967;52.070;8.596;2023-08-06T12:16:16;0.60;;;0.47;;
55069;SDS011;40967;52.070;8.596;2023-08-06T12:18:43;0.70;;;0.50;;
55069;SDS011;40967;52.070;8.596;2023-08-06T12:21:11;0.50;;;0.40;;
55069;SDS011;40967;52.070;8.596;2023-08-06T12:23:36;0.80;;;0.60;;
55069;SDS011;40967;52.070;8.596;2023-08-06T12:26:02;0.67;;;0.50;;
55069;SDS011;40967;52.070;8.596;2023-08-06T12:28:27;0.93;;;0.50;;
55069;SDS011;40967;52.070;8.596;2023-08-06T12:30:52;0.90;;;0.60;;
55069;SDS011;40967;52.070;8.596;2023-08-06T12:33:20;0.88;;;0.60;;
55069;SDS011;40967;52.070;8.596;2023-08-06T12:35:45;0.75;;;0.50;;
55069;SDS011;40967;52.070;8.596;2023-08-06T12:38:11;1.00;;;0.60;;
55069;SDS011;40967;52.070;8.596;2023-08-06T12:40:36;0.80;;;0.50;;
55069;SDS011;40967;52.070;8.596;2023-08-06T12:43:01;0.70;;;0.50;;
55069;SDS011;40967;52.070;8.596;2023-08-06T12:45:27;0.87;;;0.50;;
55069;SDS011;40967;52.070;8.596;2023-08-06T12:47:52;1.10;;;0.60;;
55069;SDS011;40967;52.070;8.596;2023-08-06T12:50:18;0.52;;;0.40;;
55069;SDS011;40967;52.070;8.596;2023-08-06T12:52:44;0.50;;;0.50;;
55069;SDS011;40967;52.070;8.596;2023-08-06T12:55:09;0.40;;;0.40;;
55069;SDS011;40967;52.070;8.596;2023-08-06T12:57:34;0.60;;;0.47;;
55069;SDS011;40967;52.070;8.596;2023-08-06T13:00:00;1.30;;;0.60;;
55069;SDS011;40967;52.070;8.596;2023-08-06T13:02:25;0.60;;;0.50;;
55069;SDS011;40967;52.070;8.596;2023-08-06T13:04:54;0.63;;;0.50;;
55069;SDS011;40967;52.070;8.596;2023-08-06T13:07:20;0.93;;;0.50;;
55069;SDS011;40967;52.070;8.596;2023-08-06T13:09:45;0.60;;;0.40;;
55069;SDS011;40967;52.070;8.596;2023-08-06T13:12:10;0.63;;;0.40;;
55069;SDS011;40967;52.070;8.596;2023-08-06T13:14:36;0.60;;;0.50;;
55069;SDS011;40967;52.070;8.596;2023-08-06T13:17:01;0.50;;;0.40;;
55069;SDS011;40967;52.070;8.596;2023-08-06T13:19:30;0.43;;;0.40;;
55069;SDS011;40967;52.070;8.596;2023-08-06T13:21:59;0.90;;;0.50;;
55069;SDS011;40967;52.070;8.596;2023-08-06T13:24:27;0.43;;;0.40;;
55069;SDS011;40967;52.070;8.596;2023-08-06T13:26:52;0.50;;;0.45;;
55069;SDS011;40967;52.070;8.596;2023-08-06T13:29:18;0.67;;;0.47;;
55069;SDS011;40967;52.070;8.596;2023-08-06T13:31:43;0.47;;;0.40;;
55069;SDS011;40967;52.070;8.596;2023-08-06T13:34:09;0.60;;;0.50;;
55069;SDS011;40967;52.070;8.596;2023-08-06T13:36:34;0.67;;;0.50;;
55069;SDS011;40967;52.070;8.596;2023-08-06T13:38:59;0.43;;;0.40;;
55069;SDS011;40967;52.070;8.596;2023-08-06T13:41:25;0.87;;;0.47;;
55069;SDS011;40967;52.070;8.596;2023-08-06T13:43:50;0.73;;;0.47;;
55069;SDS011;40967;52.070;8.596;2023-08-06T13:46:17;0.65;;;0.40;;
55069;SDS011;40967;52.070;8.596;2023-08-06T13:48:45;0.80;;;0.50;;
55069;SDS011;40967;52.070;8.596;2023-08-06T13:51:11;0.67;;;0.50;;
55069;SDS011;40967;52.070;8.596;2023-08-06T13:53:38;0.77;;;0.55;;
55069;SDS011;40967;52.070;8.596;2023-08-06T13:56:06;0.60;;;0.50;;
55069;SDS011;40967;52.070;8.596;2023-08-06T13:58:35;0.60;;;0.50;;
55069;SDS011;40967;52.070;8.596;2023-08-06T14:01:00;1.00;;;0.60;;
55069;SDS011;40967;52.070;8.596;2023-08-06T14:03:25;1.00;;;0.70;;
55069;SDS011;40967;52.070;8.596;2023-08-06T14:05:51;1.07;;;0.50;;
55069;SDS011;40967;52.070;8.596;2023-08-06T14:08:17;0.77;;;0.60;;
55069;SDS011;40967;52.070;8.596;2023-08-06T14:10:43;1.43;;;0.80;;
55069;SDS011;40967;52.070;8.596;2023-08-06T14:13:09;1.00;;;0.70;;
55069;SDS011;40967;52.070;8.596;2023-08-06T14:15:35;0.98;;;0.70;;
55069;SDS011;40967;52.070;8.596;2023-08-06T14:18:00;1.23;;;0.70;;
55069;SDS011;40967;52.070;8.596;2023-08-06T14:20:26;1.20;;;0.65;;
55069;SDS011;40967;52.070;8.596;2023-08-06T14:22:51;1.00;;;0.70;;
55069;SDS011;40967;52.070;8.596;2023-08-06T14:25:17;0.87;;;0.57;;
55069;SDS011;40967;52.070;8.596;2023-08-06T14:27:42;1.10;;;0.67;;
55069;SDS011;40967;52.070;8.596;2023-08-06T14:30:08;0.90;;;0.60;;
55069;SDS011;40967;52.070;8.596;2023-08-06T14:32:33;1.20;;;0.77;;
55069;SDS011;40967;52.070;8.596;2023-08-06T14:34:59;1.00;;;0.67;;
55069;SDS011;40967;52.070;8.596;2023-08-06T14:37:25;1.33;;;0.70;;
55069;SDS011;40967;52.070;8.596;2023-08-06T14:39:50;1.70;;;0.80;;
55069;SDS011;40967;52.070;8.596;2023-08-06T14:42:17;1.20;;;0.80;;
55069;SDS011;40967;52.070;8.596;2023-08-06T14:44:42;1.13;;;0.68;;
55069;SDS011;40967;52.070;8.596;2023-08-06T14:47:08;1.40;;;0.70;;
55069;SDS011;40967;52.070;8.596;2023-08-06T14:49:33;0.90;;;0.50;;
55069;SDS011;40967;52.070;8.596;2023-08-06T14:51:58;1.00;;;0.50;;
55069;SDS011;40967;52.070;8.596;2023-08-06T14:54:25;1.10;;;0.70;;
55069;SDS011;40967;52.070;8.596;2023-08-06T14:56:51;0.50;;;0.40;;
55069;SDS011;40967;52.070;8.596;2023-08-06T14:59:16;1.03;;;0.50;;